Time;durP1;ratioP1;P1;durP2;ratioP2;P2;SDS_P1;SDS_P2;PMS_P1;PMS_P2;Temp;Humidity;BMP_temperature;BMP_pressure;BME280_temperature;BME280_humidity;BME280_pressure;Samples;Min_cycle;Max_cycle;Signal;HPM_P1;HPM_P2
2022/07/30 00:00:27;;;;;;;16.63;10.48;;;18.80;86.90;;;;;;5065623;28;20491;-76
2022/07/30 00:02:53;;;;;;;26.30;12.70;;;18.80;87.30;;;;;;5072284;28;20032;-76
2022/07/30 00:05:19;;;;;;;16.55;11.88;;;18.80;87.40;;;;;;5072514;28;20013;-76
2022/07/30 00:07:47;;;;;;;22.80;13.50;;;18.80;88.20;;;;;;5072291;28;20751;-76
2022/07/30 00:10:12;;;;;;;23.15;13.60;;;18.70;89.20;;;;;;5073794;28;20036;-76
2022/07/30 00:12:42;;;;;;;17.25;12.20;;;18.70;89.60;;;;;;5072439;28;20017;-75
2022/07/30 00:15:08;;;;;;;26.05;14.02;;;18.60;89.90;;;;;;5054805;28;20090;-76
2022/07/30 00:17:35;;;;;;;24.08;13.02;;;18.60;90.10;;;;;;5061377;28;20544;-76
2022/07/30 00:20:00;;;;;;;19.23;10.32;;;18.60;90.20;;;;;;5072367;28;20104;-76
2022/07/30 00:22:26;;;;;;;17.65;10.35;;;18.50;90.10;;;;;;5071278;28;20107;-76
2022/07/30 00:24:52;;;;;;;12.95;10.90;;;18.50;90.10;;;;;;5055039;28;20029;-76
2022/07/30 00:27:18;;;;;;;18.00;11.55;;;18.50;90.50;;;;;;5054024;28;20439;-76
2022/07/30 00:29:43;;;;;;;16.05;10.27;;;18.50;90.00;;;;;;5054926;28;20036;-76
2022/07/30 00:32:12;;;;;;;24.88;13.05;;;18.50;90.00;;;;;;5051066;28;20112;-76
2022/07/30 00:34:38;;;;;;;13.50;8.65;;;18.60;90.20;;;;;;5052657;28;20033;-76
2022/07/30 00:37:03;;;;;;;15.60;11.35;;;18.50;90.40;;;;;;5055340;28;20031;-74
2022/07/30 00:39:29;;;;;;;23.25;13.63;;;18.50;90.80;;;;;;5052948;28;20095;-76
2022/07/30 00:42:02;;;;;;;24.35;12.80;;;18.50;91.00;;;;;;5058980;28;20048;-76
2022/07/30 00:44:28;;;;;;;22.73;13.95;;;18.40;91.00;;;;;;5079310;28;20479;-76
2022/07/30 00:46:55;;;;;;;16.00;11.00;;;18.40;91.20;;;;;;5057549;28;20025;-76
2022/07/30 00:49:21;;;;;;;16.85;11.18;;;18.40;91.30;;;;;;5054751;28;20041;-77
2022/07/30 00:51:46;;;;;;;19.35;12.75;;;18.40;91.30;;;;;;5053089;28;20021;-76
2022/07/30 00:54:12;;;;;;;17.40;10.38;;;18.40;91.50;;;;;;5055063;28;20037;-76
2022/07/30 00:56:38;;;;;;;14.95;9.80;;;18.30;91.60;;;;;;5056013;28;20032;-77
2022/07/30 00:59:04;;;;;;;21.00;13.32;;;18.30;91.60;;;;;;5055710;28;20020;-77
2022/07/30 01:01:34;;;;;;;18.23;11.18;;;18.30;91.70;;;;;;5056052;28;20024;-76
2022/07/30 01:04:00;;;;;;;21.40;12.63;;;18.30;91.60;;;;;;5052506;28;20094;-76
2022/07/30 01:06:26;;;;;;;22.58;13.82;;;18.30;91.60;;;;;;5053837;28;20025;-77
2022/07/30 01:08:53;;;;;;;20.67;13.00;;;18.40;91.60;;;;;;5051132;28;20116;-76
2022/07/30 01:11:19;;;;;;;18.90;13.10;;;18.40;91.50;;;;;;5051938;28;20021;-77
2022/07/30 01:13:45;;;;;;;25.52;15.18;;;18.40;91.60;;;;;;5069727;28;20054;-76
2022/07/30 01:16:12;;;;;;;17.25;12.18;;;18.40;91.70;;;;;;5070380;28;20059;-76
2022/07/30 01:21:32;;;;;;;26.23;13.93;;;18.30;91.40;;;;;;5071381;28;20119;-76
2022/07/30 01:24:08;;;;;;;23.25;15.10;;;18.30;91.60;;;;;;5070032;28;20490;-76
2022/07/30 01:26:33;;;;;;;17.75;11.25;;;18.20;91.70;;;;;;5071087;28;20082;-75
2022/07/30 01:29:00;;;;;;;16.60;12.65;;;18.20;91.50;;;;;;5070481;28;20030;-76
2022/07/30 01:31:27;;;;;;;23.02;14.07;;;18.20;91.80;;;;;;5053081;28;20036;-75
2022/07/30 01:33:55;;;;;;;23.60;14.02;;;18.20;91.60;;;;;;5064481;28;20391;-75
2022/07/30 01:36:22;;;;;;;15.68;12.23;;;18.20;91.50;;;;;;5054745;28;20027;-75
2022/07/30 01:38:50;;;;;;;15.40;10.48;;;18.20;91.60;;;;;;5070233;28;20024;-76
2022/07/30 01:41:17;;;;;;;16.67;12.85;;;18.20;91.80;;;;;;5070046;28;20102;-76
2022/07/30 01:43:45;;;;;;;13.85;10.38;;;18.10;91.80;;;;;;5047674;28;20467;-76
2022/07/30 01:46:12;;;;;;;22.17;13.73;;;18.10;91.80;;;;;;5049830;28;20039;-76
2022/07/30 01:48:41;;;;;;;20.08;12.38;;;18.10;91.80;;;;;;5068894;28;20029;-77
2022/07/30 01:51:08;;;;;;;15.90;12.80;;;18.10;91.90;;;;;;5069891;28;20372;-76
2022/07/30 01:53:38;;;;;;;20.92;12.13;;;18.10;91.90;;;;;;5069928;28;20471;-76
2022/07/30 01:56:06;;;;;;;19.17;11.77;;;18.10;92.00;;;;;;5067992;28;20086;-76
2022/07/30 01:58:36;;;;;;;21.98;13.55;;;18.10;92.00;;;;;;5055938;28;20529;-76
2022/07/30 02:01:02;;;;;;;18.95;13.10;;;18.10;91.90;;;;;;5062601;28;20041;-76
2022/07/30 02:03:30;;;;;;;20.90;14.98;;;18.10;91.90;;;;;;5072422;28;20024;-78
2022/07/30 02:06:20;;;;;;;26.15;15.27;;;18.10;92.10;;;;;;5071813;28;20069;-76
2022/07/30 02:08:51;;;;;;;20.33;13.63;;;18.10;92.00;;;;;;5061042;28;20040;-76
2022/07/30 02:12:27;;;;;;;18.58;12.32;;;18.10;92.20;;;;;;5050189;28;20108;-77
2022/07/30 02:14:13;;;;;;;23.52;12.73;;;18.10;92.20;;;;;;5052582;28;20024;-76
2022/07/30 02:16:43;;;;;;;23.08;13.75;;;18.10;92.20;;;;;;5069150;28;20020;-76
2022/07/30 02:19:11;;;;;;;;;;;18.10;92.20;;;;;;5069957;28;20028;-76
2022/07/30 02:21:44;;;;;;;23.30;14.00;;;18.20;92.30;;;;;;5069533;28;20012;-77
2022/07/30 02:24:18;;;;;;;23.38;13.02;;;18.20;92.30;;;;;;5068442;28;20055;-77
2022/07/30 02:26:48;;;;;;;21.90;14.60;;;18.20;92.30;;;;;;5069227;28;20027;-77
2022/07/30 02:29:16;;;;;;;25.33;16.70;;;18.20;92.40;;;;;;5054814;28;20037;-77
2022/07/30 02:31:44;;;;;;;21.90;13.88;;;18.30;92.70;;;;;;5048227;28;20048;-77
2022/07/30 02:34:11;;;;;;;22.20;15.15;;;18.30;92.30;;;;;;5049744;28;20021;-78
2022/07/30 02:36:40;;;;;;;20.00;13.38;;;18.30;92.30;;;;;;5055742;28;20025;-77
2022/07/30 02:39:07;;;;;;;23.67;14.02;;;18.30;92.10;;;;;;5069298;28;20056;-77
2022/07/30 02:41:37;;;;;;;22.67;15.45;;;18.30;92.10;;;;;;5068928;28;20044;-76
2022/07/30 02:44:04;;;;;;;22.27;12.38;;;18.30;92.20;;;;;;5066945;28;20032;-76
2022/07/30 02:46:31;;;;;;;21.83;15.75;;;18.30;92.30;;;;;;5068701;28;20441;-77
2022/07/30 02:48:58;;;;;;;23.30;16.13;;;18.30;92.10;;;;;;5068983;28;20025;-76
2022/07/30 02:51:26;;;;;;;21.88;14.95;;;18.30;92.20;;;;;;5069497;28;20048;-76
2022/07/30 02:53:55;;;;;;;27.77;18.40;;;18.30;92.30;;;;;;5066266;28;20487;-76
2022/07/30 02:56:22;;;;;;;23.92;15.43;;;18.20;92.40;;;;;;5068834;28;20024;-76
2022/07/30 02:58:50;;;;;;;24.45;16.00;;;18.20;92.50;;;;;;5059210;28;20025;-76
2022/07/30 03:01:20;;;;;;;22.05;13.57;;;18.20;92.40;;;;;;5048606;28;20364;-76
2022/07/30 03:03:47;;;;;;;20.35;14.30;;;18.20;92.30;;;;;;5068292;28;20059;-77
2022/07/30 03:06:14;;;;;;;28.98;16.35;;;18.20;91.80;;;;;;5068699;28;20040;-75
2022/07/30 03:08:42;;;;;;;20.60;16.38;;;18.10;92.30;;;;;;5068491;28;20038;-77
2022/07/30 03:11:12;;;;;;;21.73;15.95;;;18.10;92.50;;;;;;5068424;28;20035;-77
2022/07/30 03:13:38;;;;;;;;;;;18.10;92.60;;;;;;5068876;28;20059;-75
2022/07/30 03:16:08;;;;;;;15.93;10.25;;;18.00;92.60;;;;;;5067902;28;19951;-78
2022/07/30 03:18:35;;;;;;;20.27;15.65;;;18.00;92.00;;;;;;5067332;28;20031;-75
2022/07/30 03:21:01;;;;;;;34.10;19.25;;;17.90;92.40;;;;;;5068233;28;20033;-75
2022/07/30 03:23:30;;;;;;;24.52;19.13;;;17.90;92.80;;;;;;5057820;28;20029;-77
2022/07/30 03:26:00;;;;;;;26.35;19.50;;;17.80;92.80;;;;;;5048563;28;20772;-76
2022/07/30 03:28:29;;;;;;;22.60;19.27;;;17.80;93.00;;;;;;5048120;28;20059;-76
2022/07/30 03:30:55;;;;;;;23.45;17.48;;;17.80;93.00;;;;;;5058644;28;20043;-77
2022/07/30 03:33:23;;;;;;;23.60;19.10;;;17.80;93.20;;;;;;5048452;28;20108;-77
2022/07/30 03:35:50;;;;;;;23.27;19.85;;;17.80;93.00;;;;;;5048601;28;20086;-76
2022/07/30 03:38:16;;;;;;;23.25;18.17;;;17.70;93.60;;;;;;5047071;28;20056;-77
2022/07/30 03:40:43;;;;;;;25.23;20.25;;;17.70;93.30;;;;;;5048696;28;20057;-77
2022/07/30 03:43:11;;;;;;;25.52;20.35;;;17.80;93.30;;;;;;5060216;28;20025;-78
2022/07/30 03:45:40;;;;;;;25.55;20.13;;;17.70;93.30;;;;;;5067500;28;20024;-77
2022/07/30 03:48:07;;;;;;;20.52;15.77;;;17.70;93.40;;;;;;5052555;28;20025;-77
2022/07/30 03:50:35;;;;;;;22.38;18.77;;;17.80;93.20;;;;;;5048346;28;20041;-76
2022/07/30 03:53:03;;;;;;;25.10;20.88;;;17.80;93.20;;;;;;5048169;28;20037;-77
2022/07/30 03:55:29;;;;;;;22.80;18.48;;;17.80;93.50;;;;;;5048005;28;20029;-76
2022/07/30 03:57:55;;;;;;;20.58;15.52;;;17.70;93.10;;;;;;5048111;28;20033;-77
2022/07/30 04:00:21;;;;;;;24.42;18.58;;;17.60;92.80;;;;;;5047055;28;20032;-76
2022/07/30 04:02:47;;;;;;;21.63;19.30;;;17.60;92.80;;;;;;5062386;28;20203;-77
2022/07/30 04:05:14;;;;;;;24.13;19.25;;;17.60;92.90;;;;;;5066308;28;20050;-76
2022/07/30 04:07:41;;;;;;;20.35;13.57;;;17.70;93.00;;;;;;5066933;28;20066;-76
2022/07/30 04:10:07;;;;;;;25.33;18.35;;;17.60;92.60;;;;;;5062961;28;20029;-75
2022/07/30 04:12:33;;;;;;;22.25;13.82;;;17.70;92.90;;;;;;5047853;28;20025;-75
2022/07/30 04:14:58;;;;;;;25.98;16.67;;;17.70;93.00;;;;;;5050344;28;20021;-75
2022/07/30 04:17:33;;;;;;;18.92;13.93;;;17.70;92.90;;;;;;5067394;28;20021;-76
2022/07/30 04:20:07;;;;;;;24.05;16.33;;;17.80;92.90;;;;;;5068131;28;20039;-75
2022/07/30 04:22:35;;;;;;;20.58;14.20;;;17.80;92.90;;;;;;5071183;28;20061;-75
2022/07/30 04:25:02;;;;;;;27.17;16.48;;;17.90;92.70;;;;;;5070853;28;20024;-75
2022/07/30 04:27:30;;;;;;;16.30;14.40;;;18.00;92.60;;;;;;5071830;28;20528;-75
2022/07/30 04:29:56;;;;;;;23.80;15.05;;;18.00;92.50;;;;;;5066133;28;20079;-75
2022/07/30 04:32:22;;;;;;;19.50;16.05;;;18.00;92.40;;;;;;5053789;28;20028;-74
2022/07/30 04:34:50;;;;;;;23.20;16.00;;;18.00;92.40;;;;;;5052577;28;20024;-76
2022/07/30 04:37:18;;;;;;;24.20;16.48;;;18.00;92.40;;;;;;5064807;28;20135;-75
2022/07/30 04:39:43;;;;;;;25.55;15.57;;;18.10;92.30;;;;;;5069671;28;20024;-76
2022/07/30 04:42:09;;;;;;;23.50;15.75;;;18.10;92.20;;;;;;5071416;28;20663;-75
2022/07/30 04:44:35;;;;;;;25.92;16.50;;;18.10;92.20;;;;;;5067053;28;20490;-75
2022/07/30 04:47:01;;;;;;;21.17;15.25;;;18.10;92.20;;;;;;5051048;28;20021;-75
2022/07/30 04:49:27;;;;;;;23.25;15.57;;;18.10;92.20;;;;;;5051010;28;20025;-75
2022/07/30 04:51:55;;;;;;;25.83;15.23;;;18.10;92.20;;;;;;5051078;28;20506;-75
2022/07/30 04:54:23;;;;;;;25.98;16.33;;;18.10;92.30;;;;;;5051141;28;20427;-75
2022/07/30 04:56:50;;;;;;;19.80;15.57;;;18.10;92.30;;;;;;5051391;28;20087;-75
2022/07/30 04:59:19;;;;;;;22.50;16.00;;;18.10;92.30;;;;;;5050762;28;20029;-74
2022/07/30 05:01:48;;;;;;;25.80;15.45;;;18.10;92.40;;;;;;5069842;28;20024;-74
2022/07/30 05:04:16;;;;;;;24.05;15.88;;;18.10;92.30;;;;;;5070172;28;20135;-74
2022/07/30 05:06:42;;;;;;;18.50;14.32;;;18.10;92.30;;;;;;5071343;28;20029;-74
2022/07/30 05:09:08;;;;;;;22.13;14.90;;;18.20;92.30;;;;;;5070746;28;20023;-75
2022/07/30 05:11:34;;;;;;;18.25;14.75;;;18.20;92.30;;;;;;5069693;28;20031;-76
2022/07/30 05:14:00;;;;;;;18.73;14.38;;;18.20;92.20;;;;;;5070454;28;20029;-75
2022/07/30 05:16:26;;;;;;;21.48;12.00;;;18.20;92.00;;;;;;5069146;28;20129;-75
2022/07/30 05:18:52;;;;;;;20.35;13.65;;;18.20;92.00;;;;;;5062622;28;20031;-76
2022/07/30 05:21:17;;;;;;;16.35;12.18;;;18.20;92.00;;;;;;5050692;28;20025;-75
2022/07/30 05:23:43;;;;;;;17.42;11.38;;;18.30;91.90;;;;;;5050250;28;20025;-76
2022/07/30 05:26:09;;;;;;;22.55;12.90;;;18.30;91.70;;;;;;5050590;28;20036;-75
2022/07/30 05:28:35;;;;;;;18.08;13.02;;;18.40;91.50;;;;;;5050822;28;20055;-75
2022/07/30 05:31:00;;;;;;;19.52;12.68;;;18.30;91.40;;;;;;5067672;28;20044;-74
2022/07/30 05:33:26;;;;;;;16.98;12.30;;;18.30;91.50;;;;;;5069734;28;20827;-74
2022/07/30 05:35:52;;;;;;;16.80;12.30;;;18.40;91.40;;;;;;5070090;28;20036;-74
2022/07/30 05:38:17;;;;;;;17.40;11.68;;;18.50;91.20;;;;;;5050271;28;20025;-75
2022/07/30 05:40:45;;;;;;;19.63;12.25;;;18.50;91.00;;;;;;5065947;28;20458;-75
2022/07/30 05:43:11;;;;;;;21.83;11.13;;;18.60;90.90;;;;;;5070224;28;20364;-75
2022/07/30 05:45:37;;;;;;;18.95;11.18;;;18.60;90.70;;;;;;5056861;28;20043;-75
2022/07/30 05:48:03;;;;;;;19.80;12.07;;;18.70;90.60;;;;;;5049948;28;20395;-75
2022/07/30 05:50:29;;;;;;;14.57;10.52;;;18.70;90.40;;;;;;5050449;28;20044;-76
2022/07/30 05:52:56;;;;;;;14.13;10.00;;;18.80;90.60;;;;;;5051525;28;20029;-76
2022/07/30 05:55:22;;;;;;;15.68;10.52;;;18.80;90.10;;;;;;5067978;28;20392;-75
2022/07/30 05:57:47;;;;;;;13.85;8.90;;;18.90;90.00;;;;;;5069833;28;20020;-76
2022/07/30 06:00:13;;;;;;;13.50;9.32;;;19.00;89.70;;;;;;5058399;28;20027;-71
2022/07/30 06:02:39;;;;;;;11.48;6.82;;;19.00;89.30;;;;;;5049806;28;20048;-70
2022/07/30 06:05:05;;;;;;;10.57;7.72;;;19.00;89.30;;;;;;5052428;28;20031;-71
2022/07/30 06:07:31;;;;;;;14.52;7.90;;;19.10;89.20;;;;;;5057889;28;20059;-70
2022/07/30 06:09:59;;;;;;;14.80;7.05;;;19.10;89.10;;;;;;5062214;28;20032;-70
2022/07/30 06:12:28;;;;;;;13.25;7.07;;;19.10;89.10;;;;;;5067817;28;20120;-71
2022/07/30 06:14:54;;;;;;;10.18;6.82;;;19.10;88.90;;;;;;5069014;28;20032;-71
2022/07/30 06:17:20;;;;;;;13.82;7.15;;;19.30;88.10;;;;;;5066153;28;20044;-71
2022/07/30 06:19:46;;;;;;;13.35;5.97;;;19.30;87.70;;;;;;5048144;28;20040;-71
2022/07/30 06:22:12;;;;;;;12.48;8.05;;;19.30;87.60;;;;;;5049103;28;20487;-70
2022/07/30 06:24:37;;;;;;;11.25;5.50;;;19.40;87.20;;;;;;5049153;28;20031;-71
2022/07/30 06:27:03;;;;;;;13.30;5.53;;;19.30;87.40;;;;;;5049187;28;20135;-72
2022/07/30 06:29:29;;;;;;;9.48;4.85;;;19.40;87.30;;;;;;5060581;28;20120;-70
2022/07/30 06:31:55;;;;;;;9.73;5.68;;;19.50;87.00;;;;;;5049525;28;20192;-71
2022/07/30 06:34:21;;;;;;;9.02;5.15;;;19.50;86.70;;;;;;5048004;28;20070;-72
2022/07/30 06:36:47;;;;;;;11.15;5.78;;;19.60;86.70;;;;;;5052753;28;20443;-70
2022/07/30 06:39:13;;;;;;;9.43;4.95;;;19.70;86.30;;;;;;5068207;28;20034;-71
2022/07/30 06:41:39;;;;;;;9.85;4.78;;;19.70;86.00;;;;;;5051008;28;20476;-71
2022/07/30 06:44:04;;;;;;;10.23;4.50;;;19.80;85.70;;;;;;5049206;28;20021;-71
2022/07/30 06:46:30;;;;;;;8.30;4.78;;;19.80;84.90;;;;;;5048586;28;20036;-71
2022/07/30 06:48:56;;;;;;;11.77;4.40;;;19.90;85.00;;;;;;5050331;28;20025;-72
2022/07/30 06:51:21;;;;;;;6.30;3.55;;;19.90;84.30;;;;;;5049438;28;20070;-71
2022/07/30 06:53:47;;;;;;;6.90;3.63;;;20.00;84.40;;;;;;5047991;28;20475;-70
2022/07/30 06:56:13;;;;;;;9.48;3.80;;;20.00;83.60;;;;;;5050092;28;20044;-70
2022/07/30 06:58:39;;;;;;;7.75;3.17;;;20.00;83.10;;;;;;5033868;28;20561;-71
2022/07/30 07:01:05;;;;;;;8.07;3.92;;;20.10;82.90;;;;;;5051113;28;20108;-71
2022/07/30 07:03:30;;;;;;;12.70;4.95;;;20.20;82.70;;;;;;5049758;28;20471;-72
2022/07/30 07:05:56;;;;;;;11.05;3.95;;;20.20;81.00;;;;;;5049322;28;20086;-71
2022/07/30 07:08:22;;;;;;;10.45;4.50;;;20.20;80.80;;;;;;5065260;28;20478;-69
2022/07/30 07:10:47;;;;;;;8.60;3.70;;;20.40;81.40;;;;;;5068952;28;20033;-71
2022/07/30 07:13:13;;;;;;;6.65;2.90;;;20.40;80.30;;;;;;5069183;28;20085;-73
2022/07/30 07:15:39;;;;;;;7.95;3.42;;;20.50;79.10;;;;;;5067157;28;20020;-72
2022/07/30 07:18:05;;;;;;;7.00;2.95;;;20.60;79.50;;;;;;5069678;28;20116;-72
2022/07/30 07:20:32;;;;;;;6.47;3.83;;;20.70;79.40;;;;;;5069222;28;20371;-72
2022/07/30 07:22:58;;;;;;;6.97;3.38;;;20.90;78.90;;;;;;5069143;28;20059;-71
2022/07/30 07:25:24;;;;;;;8.02;4.53;;;21.00;78.10;;;;;;5069138;28;20065;-71
2022/07/30 07:27:49;;;;;;;7.63;3.30;;;21.10;77.90;;;;;;5067806;28;20024;-71
2022/07/30 07:30:15;;;;;;;8.23;3.83;;;21.20;74.70;;;;;;5061784;28;20041;-69
2022/07/30 07:32:41;;;;;;;11.18;4.47;;;21.30;73.20;;;;;;5068604;28;20028;-68
2022/07/30 07:35:07;;;;;;;5.70;3.35;;;21.40;73.20;;;;;;5067717;28;20430;-67
2022/07/30 07:37:33;;;;;;;10.52;3.13;;;21.50;72.30;;;;;;5055574;28;20021;-67
2022/07/30 07:39:59;;;;;;;6.32;2.88;;;21.40;72.60;;;;;;5048727;28;20047;-69
2022/07/30 07:42:24;;;;;;;9.20;3.45;;;21.50;72.00;;;;;;5059155;28;20072;-69
2022/07/30 07:44:51;;;;;;;5.97;2.70;;;21.40;72.20;;;;;;5048685;28;20057;-70
2022/07/30 07:47:16;;;;;;;7.85;3.42;;;21.40;71.70;;;;;;5048014;28;20037;-70
2022/07/30 07:49:42;;;;;;;6.60;3.30;;;21.30;70.70;;;;;;5048484;28;20146;-69
2022/07/30 07:52:08;;;;;;;8.88;3.53;;;21.30;71.30;;;;;;5048600;28;20472;-70
2022/07/30 07:54:33;;;;;;;13.15;2.67;;;21.50;69.40;;;;;;5048289;28;20040;-69
2022/07/30 07:56:59;;;;;;;9.82;3.72;;;21.50;69.60;;;;;;5051379;28;20021;-68
2022/07/30 07:59:24;;;;;;;7.00;2.83;;;21.70;68.70;;;;;;5052454;28;20033;-69
2022/07/30 08:01:50;;;;;;;6.43;2.85;;;21.80;68.30;;;;;;5051750;28;20025;-69
2022/07/30 08:04:16;;;;;;;9.98;3.85;;;21.80;67.30;;;;;;5052357;28;20075;-70
2022/07/30 08:06:42;;;;;;;10.68;4.45;;;22.00;67.20;;;;;;5056474;28;20044;-69
2022/07/30 08:09:08;;;;;;;9.98;3.05;;;22.10;66.30;;;;;;5050449;28;20029;-69
2022/07/30 08:11:34;;;;;;;9.77;3.97;;;22.20;65.70;;;;;;5049166;28;20021;-71
2022/07/30 08:14:00;;;;;;;6.38;2.28;;;22.40;66.20;;;;;;5050870;28;20039;-71
2022/07/30 08:16:25;;;;;;;9.20;4.20;;;22.50;65.10;;;;;;5066861;28;20029;-70
2022/07/30 08:18:51;;;;;;;9.18;4.38;;;22.60;64.30;;;;;;5070652;28;20024;-69
2022/07/30 08:21:18;;;;;;;7.93;3.28;;;22.60;64.70;;;;;;5058945;28;20029;-69
2022/07/30 08:23:43;;;;;;;9.40;2.65;;;22.60;64.70;;;;;;5047397;28;20028;-71
2022/07/30 08:26:09;;;;;;;8.20;2.63;;;22.50;64.70;;;;;;5048652;28;20025;-70
2022/07/30 08:28:35;;;;;;;9.75;3.15;;;22.70;65.30;;;;;;5055358;28;20677;-70
2022/07/30 08:31:01;;;;;;;7.47;2.50;;;22.90;63.80;;;;;;5069462;28;20040;-72
2022/07/30 08:33:27;;;;;;;10.27;3.90;;;23.10;63.20;;;;;;5070624;28;20025;-70
2022/07/30 08:35:52;;;;;;;7.90;3.60;;;23.30;61.30;;;;;;5068175;28;20021;-69
2022/07/30 08:38:18;;;;;;;4.28;2.00;;;23.40;60.20;;;;;;5052016;28;20562;-69
2022/07/30 08:40:44;;;;;;;9.57;2.97;;;23.40;60.40;;;;;;5051789;28;20032;-69
2022/07/30 08:43:10;;;;;;;5.10;2.17;;;23.50;59.30;;;;;;5049804;28;20479;-70
2022/07/30 08:45:36;;;;;;;9.73;3.45;;;23.40;59.40;;;;;;5051922;28;20047;-71
2022/07/30 08:48:06;;;;;;;7.95;2.67;;;23.40;59.70;;;;;;5051342;28;20029;-70
2022/07/30 08:50:35;;;;;;;12.57;3.53;;;23.40;59.60;;;;;;5052846;28;20047;-69
2022/07/30 08:53:01;;;;;;;8.60;3.17;;;23.30;60.00;;;;;;5051580;28;20072;-69
2022/07/30 08:55:27;;;;;;;5.13;1.67;;;23.30;59.70;;;;;;5050236;28;20696;-71
2022/07/30 08:57:53;;;;;;;4.85;1.98;;;23.30;60.30;;;;;;5054189;28;20024;-71
2022/07/30 09:00:20;;;;;;;6.28;2.55;;;23.40;60.40;;;;;;5051010;28;20024;-70
2022/07/30 09:02:46;;;;;;;5.00;1.58;;;23.60;59.00;;;;;;5050981;28;20034;-70
2022/07/30 09:05:12;;;;;;;6.47;1.80;;;23.70;58.80;;;;;;5051768;28;20091;-71
2022/07/30 09:07:39;;;;;;;7.72;2.00;;;23.80;58.60;;;;;;5048769;28;20016;-71
2022/07/30 09:10:07;;;;;;;4.75;1.48;;;24.10;58.20;;;;;;5061153;28;20033;-68
2022/07/30 09:12:41;;;;;;;8.25;2.97;;;24.30;58.40;;;;;;5062697;28;20055;-69
2022/07/30 09:15:18;;;;;;;6.50;2.72;;;24.50;55.70;;;;;;5054566;28;20391;-69
2022/07/30 09:17:47;;;;;;;7.40;3.00;;;24.50;55.40;;;;;;5061758;28;20081;-69
2022/07/30 09:20:13;;;;;;;5.55;1.98;;;24.60;55.70;;;;;;5064158;28;20057;-71
2022/07/30 09:22:49;;;;;;;8.18;2.80;;;24.70;57.30;;;;;;5068927;28;20059;-70
2022/07/30 09:25:14;;;;;;;3.42;1.20;;;24.90;55.30;;;;;;5049764;28;20594;-70
2022/07/30 09:27:48;;;;;;;4.88;2.08;;;25.00;55.90;;;;;;5050464;28;20093;-69
2022/07/30 09:30:15;;;;;;;5.80;1.60;;;25.10;54.40;;;;;;5069374;28;20119;-70
2022/07/30 09:32:54;;;;;;;6.05;2.88;;;25.20;54.20;;;;;;5068859;28;20063;-70
2022/07/30 09:35:21;;;;;;;3.77;1.70;;;25.20;51.80;;;;;;5068614;28;20182;-70
2022/07/30 09:37:58;;;;;;;6.00;2.15;;;25.30;54.70;;;;;;5051735;28;20158;-70
2022/07/30 09:40:24;;;;;;;8.00;2.13;;;25.40;53.30;;;;;;5048900;28;20032;-68
2022/07/30 09:43:02;;;;;;;4.63;1.65;;;25.30;52.70;;;;;;5046751;28;20045;-70
2022/07/30 09:45:28;;;;;;;7.32;1.73;;;25.30;54.90;;;;;;5048309;28;20048;-70
2022/07/30 09:47:53;;;;;;;6.25;2.38;;;25.30;54.00;;;;;;5047736;28;20442;-70
2022/07/30 09:50:19;;;;;;;6.07;2.17;;;25.30;53.40;;;;;;5053274;28;20037;-69
2022/07/30 09:52:46;;;;;;;2.58;1.35;;;25.40;53.60;;;;;;5061658;28;20025;-69
2022/07/30 09:55:14;;;;;;;4.32;1.75;;;25.60;56.10;;;;;;5068803;28;20616;-69
2022/07/30 09:57:57;;;;;;;6.00;1.60;;;25.80;54.00;;;;;;5059389;28;20032;-69
2022/07/30 10:00:26;;;;;;;5.53;1.73;;;25.90;50.60;;;;;;5049474;28;20032;-68
2022/07/30 10:02:52;;;;;;;7.68;2.03;;;26.00;51.00;;;;;;5050121;28;20021;-69
2022/07/30 10:05:19;;;;;;;5.00;1.90;;;26.10;51.30;;;;;;5049088;28;20021;-69
2022/07/30 10:07:54;;;;;;;5.60;1.30;;;26.10;51.40;;;;;;5049615;28;20064;-68
2022/07/30 10:10:22;;;;;;;6.32;1.50;;;26.20;52.70;;;;;;5049472;28;20040;-70
2022/07/30 10:12:52;;;;;;;3.80;1.50;;;26.00;54.10;;;;;;5060140;28;20051;-70
2022/07/30 10:15:19;;;;;;;;;;;26.10;52.10;;;;;;5070708;28;20021;-69
2022/07/30 10:17:46;;;;;;;3.50;1.20;;;26.10;47.40;;;;;;5070157;28;19908;-70
2022/07/30 10:20:13;;;;;;;5.70;1.63;;;26.00;52.10;;;;;;5053321;28;20032;-71
2022/07/30 10:22:41;;;;;;;4.18;1.33;;;26.10;51.40;;;;;;5049605;28;20360;-70
2022/07/30 10:25:07;;;;;;;4.68;1.88;;;26.20;55.10;;;;;;5049426;28;20095;-70
2022/07/30 10:27:33;;;;;;;3.85;1.25;;;26.40;55.50;;;;;;5062762;28;20036;-69
2022/07/30 10:30:01;;;;;;;6.68;1.60;;;26.50;51.80;;;;;;5068980;28;20082;-72
2022/07/30 10:32:26;;;;;;;7.75;1.88;;;26.60;54.70;;;;;;5068103;28;20028;-72
2022/07/30 10:34:53;;;;;;;5.80;1.75;;;26.60;50.30;;;;;;5069125;28;20031;-71
2022/07/30 10:37:20;;;;;;;6.32;2.05;;;26.70;49.50;;;;;;5057252;28;20043;-69
2022/07/30 10:40:19;;;;;;;7.40;1.75;;;26.60;46.60;;;;;;5048340;28;20189;-70
2022/07/30 10:43:09;;;;;;;6.57;1.65;;;26.50;46.80;;;;;;5065987;28;20053;-73
2022/07/30 10:46:26;;;;;;;3.45;1.38;;;26.60;45.70;;;;;;5049197;28;20102;-70
2022/07/30 10:48:54;;;;;;;3.25;1.10;;;26.60;45.80;;;;;;5053643;28;20037;-70
2022/07/30 10:51:21;;;;;;;3.72;1.58;;;26.90;45.80;;;;;;5068270;28;20063;-70
2022/07/30 10:53:47;;;;;;;5.00;1.48;;;27.00;44.00;;;;;;5067355;28;20039;-69
2022/07/30 10:56:19;;;;;;;2.55;1.02;;;27.10;46.20;;;;;;5057442;28;20028;-71
2022/07/30 10:59:09;;;;;;;2.70;1.02;;;27.00;46.70;;;;;;5050050;28;20725;-71
2022/07/30 11:01:46;;;;;;;3.90;1.63;;;27.10;48.60;;;;;;5048788;28;20021;-71
2022/07/30 11:04:23;;;;;;;5.45;1.30;;;27.30;44.90;;;;;;5049188;28;20098;-70
2022/07/30 11:06:50;;;;;;;5.07;1.55;;;27.50;44.20;;;;;;5047088;28;20791;-70
2022/07/30 11:09:39;;;;;;;2.97;1.20;;;27.40;44.20;;;;;;5048666;28;20091;-71
2022/07/30 11:12:06;;;;;;;3.42;1.40;;;27.60;46.80;;;;;;5066526;28;20031;-71
2022/07/30 11:14:47;;;;;;;5.45;1.15;;;27.70;46.70;;;;;;5069518;28;20484;-70
2022/07/30 11:17:17;;;;;;;3.63;1.15;;;27.80;51.90;;;;;;5068538;28;20029;-70
2022/07/30 11:20:01;;;;;;;4.50;1.40;;;27.70;48.90;;;;;;5069062;28;20462;-70
2022/07/30 11:22:39;;;;;;;4.28;1.38;;;27.90;48.30;;;;;;5067386;28;20483;-70
2022/07/30 11:25:06;;;;;;;5.38;1.83;;;28.00;52.10;;;;;;5068897;28;20799;-70
2022/07/30 11:27:45;;;;;;;4.68;1.38;;;27.90;44.50;;;;;;5068607;28;20020;-69
2022/07/30 11:30:17;;;;;;;4.82;1.90;;;27.90;47.70;;;;;;5068757;28;20122;-70
2022/07/30 11:32:47;;;;;;;7.32;2.00;;;27.90;49.20;;;;;;5060496;28;20029;-70
2022/07/30 11:35:16;;;;;;;7.18;1.40;;;27.80;45.60;;;;;;5067773;28;20071;-70
2022/07/30 11:37:55;;;;;;;5.20;1.75;;;27.90;45.60;;;;;;5060891;28;20017;-71
2022/07/30 11:40:23;;;;;;;5.87;1.87;;;27.90;46.60;;;;;;5055578;28;20025;-71
2022/07/30 11:42:49;;;;;;;6.07;1.73;;;28.10;47.50;;;;;;5058984;28;20294;-70
2022/07/30 11:45:15;;;;;;;7.63;2.03;;;28.10;44.60;;;;;;5061268;28;20029;-70
2022/07/30 11:47:45;;;;;;;5.30;1.67;;;28.00;45.40;;;;;;5059948;28;20018;-69
2022/07/30 11:50:17;;;;;;;1.85;1.00;;;28.00;49.50;;;;;;5060857;28;20032;-72
2022/07/30 11:52:57;;;;;;;5.10;1.70;;;28.10;48.30;;;;;;5062970;28;20048;-69
2022/07/30 11:55:38;;;;;;;3.42;1.30;;;28.10;46.70;;;;;;5060828;28;20089;-71
2022/07/30 11:58:06;;;;;;;3.95;1.38;;;28.20;53.00;;;;;;5062950;28;20016;-70
2022/07/30 12:00:38;;;;;;;5.22;1.90;;;28.20;49.30;;;;;;5062232;28;20020;-70
2022/07/30 12:03:10;;;;;;;4.22;1.42;;;28.20;47.90;;;;;;5061821;28;20111;-70
2022/07/30 12:05:36;;;;;;;5.13;2.45;;;28.40;50.40;;;;;;5069489;28;20029;-69
2022/07/30 12:08:02;;;;;;;2.65;1.08;;;28.60;45.10;;;;;;5061737;28;20108;-70
2022/07/30 12:10:28;;;;;;;7.35;1.90;;;28.50;49.20;;;;;;5058490;28;20381;-69
2022/07/30 12:13:07;;;;;;;6.40;2.17;;;28.60;49.50;;;;;;5068693;28;20025;-69
2022/07/30 12:15:37;;;;;;;7.03;1.33;;;28.80;47.60;;;;;;5063887;28;20491;-67
2022/07/30 12:18:03;;;;;;;4.63;1.58;;;28.80;49.70;;;;;;5056710;28;20040;-68
2022/07/30 12:20:29;;;;;;;4.20;1.08;;;28.90;48.60;;;;;;5066244;28;20021;-67
2022/07/30 12:22:56;;;;;;;3.35;1.15;;;29.00;48.60;;;;;;5051809;28;20034;-68
2022/07/30 12:25:22;;;;;;;6.32;1.80;;;29.00;49.50;;;;;;5060873;28;20062;-68
2022/07/30 12:27:48;;;;;;;5.85;2.28;;;28.90;46.60;;;;;;5070373;28;20052;-67
2022/07/30 12:30:16;;;;;;;5.50;1.98;;;28.90;46.30;;;;;;5072022;28;20037;-68
2022/07/30 12:32:45;;;;;;;11.43;2.42;;;28.80;45.00;;;;;;5068881;28;20148;-69
2022/07/30 12:35:12;;;;;;;6.57;1.90;;;28.60;45.80;;;;;;5066049;28;20100;-68
2022/07/30 12:37:38;;;;;;;4.72;1.60;;;28.50;47.40;;;;;;5063366;28;20020;-67
2022/07/30 12:40:14;;;;;;;4.20;1.42;;;28.60;47.50;;;;;;5071855;28;20027;-68
2022/07/30 12:42:50;;;;;;;5.45;1.98;;;28.70;47.00;;;;;;5052447;28;20075;-67
2022/07/30 12:45:34;;;;;;;4.97;1.30;;;28.80;46.80;;;;;;5051798;28;20040;-68